Dodgeville, WI (53533)

8:01 AM CDT on April 28, 2017 (GMT -0500)
Iowa County | | Change Station
Active Advisory: Winter Weather Statement

Elev 1175 ft 42.89 °N, 90.24 °W | Updated 26 minutes ago

Clear
Clear
34 °F
Feels Like 31 °F
N
4
Wind Variable Wind from NNW

Today
High -- | Low -- °F
--% Chance of Precip.
Yesterday
High -- | Low -- °F
Precip. -- in
Pressure 29.90 in
Visibility 10.0 miles
Clouds Clear
Windchill 31 °F
Dew Point 32 °F
Humidity 93%
Rainfall 0.00 in
Snow Depth Not available.
5:58 AM 7:58 PM
Waxing Crescent, 6% visible
METAR KMRJ 281235Z AUTO 33003KT 10SM CLR 01/00 A2990 RMK AO2
Pressure 29.90 in
Visibility 10.0 miles
Clouds Clear
Windchill 31 °F
Dew Point 32 °F
Humidity 93%
Rainfall 0.00 in
Snow Depth Not available.
5:58 AM 7:58 PM
Waxing Crescent, 6% visible
METAR KMRJ 281235Z AUTO 33003KT 10SM CLR 01/00 A2990 RMK AO2

Get Your Daily Forecast Email!

Thanks for signing up!

Be on the lookout for a verification email in your inbox.

You'll start receiving severe weather alerts in your inbox..

×

10-Day Weather Forecast

Almanac

Astronomy

Apr. 28, 2017 Rise Set
Actual Time
Civil Twilight
Nautical Twilight
Astronomical Twilight
Moon
Length of Visible Light
Length of Day
Tomorrow will be .
, % of the Moon is Illuminated

Today's Extremes

State Highs State Lows

Community

WunderPhotos

WunderBlog® & News

Nearby

Air Quality

  Air Quality AQ Index Pollutant
Not available.

Snow Depth

Station Depth Elevation

Earthquake Activity

City Distance Mag. Time & Date
Minimum magnitude displayed is 2.5.

Coastal Water Temperatures

Place Temperature

Stations

Nearby Weather Stations

Station Location Temp. Windchill Dew Point Humidity Wind Precip. Elev Updated Type
                   

Watches & Warnings

Winter Weather Statement
Issued: 4:29 AM CDT Apr. 28, 2017 – National Weather Service

... Frost advisory remains in effect until 8 am CDT this morning...

A frost advisory remains in effect until 8 am CDT this morning.

* Frost is expected to occur this morning.

* Temperatures will drop into the low 30s by sunrise.

* Areas where the growing season has begun could be exposed to
the frost and near freezing temperatures.

Precautionary/preparedness actions...

A frost advisory means that widespread frost is expected.
Sensitive outdoor plants may be killed if left uncovered.